sensor_id;sensor_type;location;lat;lon;timestamp;P1;durP1;ratioP1;P2;durP2;ratioP2
61915;SDS011;47868;51.326;6.550;2023-04-25T00:01:39;19.33;;;6.22;;
61915;SDS011;47868;51.326;6.550;2023-04-25T00:04:05;17.92;;;6.28;;
61915;SDS011;47868;51.326;6.550;2023-04-25T00:06:31;17.08;;;6.00;;
61915;SDS011;47868;51.326;6.550;2023-04-25T00:08:57;13.63;;;6.00;;
61915;SDS011;47868;51.326;6.550;2023-04-25T00:11:24;15.23;;;5.70;;
61915;SDS011;47868;51.326;6.550;2023-04-25T00:13:50;13.35;;;6.07;;
61915;SDS011;47868;51.326;6.550;2023-04-25T00:16:16;17.85;;;5.93;;
61915;SDS011;47868;51.326;6.550;2023-04-25T00:18:42;14.77;;;6.00;;
61915;SDS011;47868;51.326;6.550;2023-04-25T00:21:08;13.48;;;6.00;;
61915;SDS011;47868;51.326;6.550;2023-04-25T00:23:34;12.90;;;6.65;;
61915;SDS011;47868;51.326;6.550;2023-04-25T00:26:01;14.15;;;6.25;;
61915;SDS011;47868;51.326;6.550;2023-04-25T00:28:28;17.17;;;6.05;;
61915;SDS011;47868;51.326;6.550;2023-04-25T00:30:54;14.82;;;5.72;;
61915;SDS011;47868;51.326;6.550;2023-04-25T00:33:20;12.88;;;6.45;;
61915;SDS011;47868;51.326;6.550;2023-04-25T00:35:46;15.73;;;6.38;;
61915;SDS011;47868;51.326;6.550;2023-04-25T00:38:12;13.65;;;6.05;;
61915;SDS011;47868;51.326;6.550;2023-04-25T00:40:38;11.90;;;6.32;;
61915;SDS011;47868;51.326;6.550;2023-04-25T00:43:04;14.02;;;6.32;;
61915;SDS011;47868;51.326;6.550;2023-04-25T00:45:30;14.23;;;6.00;;
61915;SDS011;47868;51.326;6.550;2023-04-25T00:47:57;16.42;;;7.30;;
61915;SDS011;47868;51.326;6.550;2023-04-25T00:50:24;16.23;;;5.90;;
61915;SDS011;47868;51.326;6.550;2023-04-25T00:52:50;13.52;;;6.22;;
61915;SDS011;47868;51.326;6.550;2023-04-25T00:55:16;13.27;;;6.28;;
61915;SDS011;47868;51.326;6.550;2023-04-25T00:57:42;13.82;;;6.28;;
61915;SDS011;47868;51.326;6.550;2023-04-25T01:00:09;13.43;;;6.28;;
61915;SDS011;47868;51.326;6.550;2023-04-25T01:02:35;14.90;;;6.53;;
61915;SDS011;47868;51.326;6.550;2023-04-25T01:05:02;19.30;;;6.75;;
61915;SDS011;47868;51.326;6.550;2023-04-25T01:07:29;16.05;;;6.20;;
61915;SDS011;47868;51.326;6.550;2023-04-25T01:09:55;14.18;;;6.25;;
61915;SDS011;47868;51.326;6.550;2023-04-25T01:12:22;10.52;;;6.13;;
61915;SDS011;47868;51.326;6.550;2023-04-25T01:14:48;14.38;;;6.57;;
61915;SDS011;47868;51.326;6.550;2023-04-25T01:17:14;13.98;;;6.45;;
61915;SDS011;47868;51.326;6.550;2023-04-25T01:19:41;19.25;;;6.35;;
61915;SDS011;47868;51.326;6.550;2023-04-25T01:22:07;10.68;;;5.90;;
61915;SDS011;47868;51.326;6.550;2023-04-25T01:24:35;15.00;;;6.25;;
61915;SDS011;47868;51.326;6.550;2023-04-25T01:27:02;23.67;;;7.25;;
61915;SDS011;47868;51.326;6.550;2023-04-25T01:29:29;10.45;;;5.45;;
61915;SDS011;47868;51.326;6.550;2023-04-25T01:31:55;17.77;;;5.78;;
61915;SDS011;47868;51.326;6.550;2023-04-25T01:34:23;13.98;;;6.10;;
61915;SDS011;47868;51.326;6.550;2023-04-25T01:36:50;14.32;;;5.75;;
61915;SDS011;47868;51.326;6.550;2023-04-25T01:39:17;15.65;;;6.43;;
61915;SDS011;47868;51.326;6.550;2023-04-25T01:41:43;12.85;;;5.60;;
61915;SDS011;47868;51.326;6.550;2023-04-25T01:44:09;17.95;;;6.60;;
61915;SDS011;47868;51.326;6.550;2023-04-25T01:46:35;13.68;;;5.80;;
61915;SDS011;47868;51.326;6.550;2023-04-25T01:49:01;12.88;;;5.15;;
61915;SDS011;47868;51.326;6.550;2023-04-25T01:51:28;15.38;;;4.88;;
61915;SDS011;47868;51.326;6.550;2023-04-25T01:53:54;10.55;;;5.03;;
61915;SDS011;47868;51.326;6.550;2023-04-25T01:56:20;11.25;;;4.55;;
61915;SDS011;47868;51.326;6.550;2023-04-25T01:58:46;10.05;;;4.85;;
61915;SDS011;47868;51.326;6.550;2023-04-25T02:01:12;12.73;;;6.38;;
61915;SDS011;47868;51.326;6.550;2023-04-25T02:03:39;11.90;;;5.75;;
61915;SDS011;47868;51.326;6.550;2023-04-25T02:06:05;12.35;;;5.85;;
61915;SDS011;47868;51.326;6.550;2023-04-25T02:08:31;12.25;;;5.47;;
61915;SDS011;47868;51.326;6.550;2023-04-25T02:10:57;10.75;;;5.20;;
61915;SDS011;47868;51.326;6.550;2023-04-25T02:13:23;9.52;;;5.15;;
61915;SDS011;47868;51.326;6.550;2023-04-25T02:15:49;9.23;;;5.15;;
61915;SDS011;47868;51.326;6.550;2023-04-25T02:18:15;12.48;;;5.30;;
61915;SDS011;47868;51.326;6.550;2023-04-25T02:20:42;11.15;;;5.47;;
61915;SDS011;47868;51.326;6.550;2023-04-25T02:23:09;14.35;;;6.45;;
61915;SDS011;47868;51.326;6.550;2023-04-25T02:25:35;12.38;;;5.85;;
61915;SDS011;47868;51.326;6.550;2023-04-25T02:28:01;8.85;;;5.80;;
61915;SDS011;47868;51.326;6.550;2023-04-25T02:30:27;14.55;;;6.07;;
61915;SDS011;47868;51.326;6.550;2023-04-25T02:32:53;11.88;;;6.57;;
61915;SDS011;47868;51.326;6.550;2023-04-25T02:35:19;11.63;;;5.97;;
61915;SDS011;47868;51.326;6.550;2023-04-25T02:37:45;14.90;;;6.40;;
61915;SDS011;47868;51.326;6.550;2023-04-25T02:40:11;16.08;;;6.88;;
61915;SDS011;47868;51.326;6.550;2023-04-25T02:42:37;12.80;;;6.57;;
61915;SDS011;47868;51.326;6.550;2023-04-25T02:45:04;14.57;;;6.93;;
61915;SDS011;47868;51.326;6.550;2023-04-25T02:47:30;13.50;;;6.30;;
61915;SDS011;47868;51.326;6.550;2023-04-25T02:49:56;10.90;;;6.63;;
61915;SDS011;47868;51.326;6.550;2023-04-25T02:52:22;16.27;;;6.78;;
61915;SDS011;47868;51.326;6.550;2023-04-25T02:54:48;14.68;;;7.22;;
61915;SDS011;47868;51.326;6.550;2023-04-25T02:57:14;11.55;;;6.53;;
61915;SDS011;47868;51.326;6.550;2023-04-25T02:59:40;18.42;;;6.72;;
61915;SDS011;47868;51.326;6.550;2023-04-25T03:02:06;13.27;;;6.43;;
61915;SDS011;47868;51.326;6.550;2023-04-25T03:04:32;18.17;;;6.88;;
61915;SDS011;47868;51.326;6.550;2023-04-25T03:06:58;18.70;;;6.55;;
61915;SDS011;47868;51.326;6.550;2023-04-25T03:09:24;15.25;;;6.43;;
61915;SDS011;47868;51.326;6.550;2023-04-25T03:11:50;12.73;;;5.93;;
61915;SDS011;47868;51.326;6.550;2023-04-25T03:14:16;21.60;;;7.32;;
61915;SDS011;47868;51.326;6.550;2023-04-25T03:16:42;21.63;;;5.85;;
61915;SDS011;47868;51.326;6.550;2023-04-25T03:19:08;10.93;;;5.68;;
61915;SDS011;47868;51.326;6.550;2023-04-25T03:21:35;16.38;;;5.60;;
61915;SDS011;47868;51.326;6.550;2023-04-25T03:24:02;20.90;;;6.13;;
61915;SDS011;47868;51.326;6.550;2023-04-25T03:26:28;17.88;;;6.40;;
61915;SDS011;47868;51.326;6.550;2023-04-25T03:28:54;15.85;;;6.57;;
61915;SDS011;47868;51.326;6.550;2023-04-25T03:31:20;18.33;;;6.38;;
61915;SDS011;47868;51.326;6.550;2023-04-25T03:33:47;14.25;;;6.13;;
61915;SDS011;47868;51.326;6.550;2023-04-25T03:36:13;14.07;;;6.65;;
61915;SDS011;47868;51.326;6.550;2023-04-25T03:38:39;18.50;;;6.55;;
61915;SDS011;47868;51.326;6.550;2023-04-25T03:41:06;14.43;;;6.32;;
61915;SDS011;47868;51.326;6.550;2023-04-25T03:43:33;16.58;;;6.18;;
61915;SDS011;47868;51.326;6.550;2023-04-25T03:45:59;14.77;;;5.97;;
61915;SDS011;47868;51.326;6.550;2023-04-25T03:48:25;14.70;;;6.22;;
61915;SDS011;47868;51.326;6.550;2023-04-25T03:50:52;19.98;;;6.90;;
61915;SDS011;47868;51.326;6.550;2023-04-25T03:53:18;19.05;;;5.93;;
61915;SDS011;47868;51.326;6.550;2023-04-25T03:55:44;20.00;;;6.65;;
61915;SDS011;47868;51.326;6.550;2023-04-25T03:58:10;15.93;;;6.13;;
61915;SDS011;47868;51.326;6.550;2023-04-25T04:00:36;14.43;;;5.72;;
61915;SDS011;47868;51.326;6.550;2023-04-25T04:03:03;17.67;;;6.38;;
61915;SDS011;47868;51.326;6.550;2023-04-25T04:05:29;16.10;;;6.00;;
61915;SDS011;47868;51.326;6.550;2023-04-25T04:07:55;17.25;;;5.88;;
61915;SDS011;47868;51.326;6.550;2023-04-25T04:10:21;19.65;;;6.68;;
61915;SDS011;47868;51.326;6.550;2023-04-25T04:12:47;14.68;;;6.15;;
61915;SDS011;47868;51.326;6.550;2023-04-25T04:15:13;17.83;;;6.63;;
61915;SDS011;47868;51.326;6.550;2023-04-25T04:17:39;15.80;;;6.38;;
61915;SDS011;47868;51.326;6.550;2023-04-25T04:20:06;24.00;;;7.00;;
61915;SDS011;47868;51.326;6.550;2023-04-25T04:22:33;17.33;;;6.95;;
61915;SDS011;47868;51.326;6.550;2023-04-25T04:24:59;19.80;;;6.35;;
61915;SDS011;47868;51.326;6.550;2023-04-25T04:27:26;17.63;;;6.53;;
61915;SDS011;47868;51.326;6.550;2023-04-25T04:29:53;18.25;;;6.38;;
61915;SDS011;47868;51.326;6.550;2023-04-25T04:32:19;13.85;;;6.78;;
61915;SDS011;47868;51.326;6.550;2023-04-25T04:34:45;12.13;;;6.68;;
61915;SDS011;47868;51.326;6.550;2023-04-25T04:37:12;24.20;;;6.70;;
61915;SDS011;47868;51.326;6.550;2023-04-25T04:39:38;16.13;;;6.38;;
61915;SDS011;47868;51.326;6.550;2023-04-25T04:42:04;18.40;;;6.95;;
61915;SDS011;47868;51.326;6.550;2023-04-25T04:44:30;17.13;;;6.57;;
61915;SDS011;47868;51.326;6.550;2023-04-25T04:47:00;15.60;;;6.50;;
61915;SDS011;47868;51.326;6.550;2023-04-25T04:49:26;19.42;;;6.75;;
61915;SDS011;47868;51.326;6.550;2023-04-25T04:51:53;14.38;;;6.25;;
61915;SDS011;47868;51.326;6.550;2023-04-25T04:54:19;16.92;;;7.40;;
61915;SDS011;47868;51.326;6.550;2023-04-25T04:56:45;15.13;;;6.95;;
61915;SDS011;47868;51.326;6.550;2023-04-25T04:59:12;20.45;;;7.55;;
61915;SDS011;47868;51.326;6.550;2023-04-25T05:01:38;23.05;;;8.70;;
61915;SDS011;47868;51.326;6.550;2023-04-25T05:04:04;20.25;;;8.55;;
61915;SDS011;47868;51.326;6.550;2023-04-25T05:06:31;25.15;;;7.20;;
61915;SDS011;47868;51.326;6.550;2023-04-25T05:08:57;18.85;;;7.25;;
61915;SDS011;47868;51.326;6.550;2023-04-25T05:11:23;13.50;;;6.53;;
61915;SDS011;47868;51.326;6.550;2023-04-25T05:13:52;15.35;;;7.05;;
61915;SDS011;47868;51.326;6.550;2023-04-25T05:16:19;13.73;;;6.53;;
61915;SDS011;47868;51.326;6.550;2023-04-25T05:18:45;20.00;;;7.07;;
61915;SDS011;47868;51.326;6.550;2023-04-25T05:21:11;20.48;;;6.85;;
61915;SDS011;47868;51.326;6.550;2023-04-25T05:23:37;25.50;;;6.78;;
61915;SDS011;47868;51.326;6.550;2023-04-25T05:26:03;16.63;;;6.72;;
61915;SDS011;47868;51.326;6.550;2023-04-25T05:28:30;20.15;;;6.70;;
61915;SDS011;47868;51.326;6.550;2023-04-25T05:30:56;17.23;;;7.20;;
61915;SDS011;47868;51.326;6.550;2023-04-25T05:33:22;18.27;;;6.57;;
61915;SDS011;47868;51.326;6.550;2023-04-25T05:35:49;17.00;;;7.00;;
61915;SDS011;47868;51.326;6.550;2023-04-25T05:38:15;16.15;;;7.40;;
61915;SDS011;47868;51.326;6.550;2023-04-25T05:40:41;16.00;;;6.72;;
61915;SDS011;47868;51.326;6.550;2023-04-25T05:43:07;15.38;;;6.57;;
61915;SDS011;47868;51.326;6.550;2023-04-25T05:45:33;18.98;;;6.70;;
61915;SDS011;47868;51.326;6.550;2023-04-25T05:47:59;14.88;;;7.05;;
61915;SDS011;47868;51.326;6.550;2023-04-25T05:50:25;19.23;;;7.07;;
61915;SDS011;47868;51.326;6.550;2023-04-25T05:52:51;17.23;;;6.68;;
61915;SDS011;47868;51.326;6.550;2023-04-25T05:55:17;14.88;;;7.30;;
61915;SDS011;47868;51.326;6.550;2023-04-25T05:57:44;19.13;;;6.47;;
61915;SDS011;47868;51.326;6.550;2023-04-25T06:00:11;17.83;;;6.20;;
61915;SDS011;47868;51.326;6.550;2023-04-25T06:02:37;23.13;;;6.70;;
61915;SDS011;47868;51.326;6.550;2023-04-25T06:05:03;12.95;;;5.78;;
61915;SDS011;47868;51.326;6.550;2023-04-25T06:07:30;15.65;;;5.93;;
61915;SDS011;47868;51.326;6.550;2023-04-25T06:09:56;18.48;;;6.35;;
61915;SDS011;47868;51.326;6.550;2023-04-25T06:12:22;12.90;;;6.15;;
61915;SDS011;47868;51.326;6.550;2023-04-25T06:14:48;18.35;;;6.45;;
61915;SDS011;47868;51.326;6.550;2023-04-25T06:17:14;18.85;;;6.45;;
61915;SDS011;47868;51.326;6.550;2023-04-25T06:19:40;19.20;;;5.80;;
61915;SDS011;47868;51.326;6.550;2023-04-25T06:22:07;18.42;;;6.47;;
61915;SDS011;47868;51.326;6.550;2023-04-25T06:24:33;13.00;;;5.72;;
61915;SDS011;47868;51.326;6.550;2023-04-25T06:26:59;12.38;;;5.10;;
61915;SDS011;47868;51.326;6.550;2023-04-25T06:29:25;15.40;;;5.78;;
61915;SDS011;47868;51.326;6.550;2023-04-25T06:31:51;18.35;;;5.85;;
61915;SDS011;47868;51.326;6.550;2023-04-25T06:34:18;18.60;;;5.22;;
61915;SDS011;47868;51.326;6.550;2023-04-25T06:36:44;17.15;;;5.20;;
61915;SDS011;47868;51.326;6.550;2023-04-25T06:39:10;22.48;;;6.22;;
61915;SDS011;47868;51.326;6.550;2023-04-25T06:41:36;17.13;;;5.50;;
61915;SDS011;47868;51.326;6.550;2023-04-25T06:44:02;14.93;;;5.35;;
61915;SDS011;47868;51.326;6.550;2023-04-25T06:46:29;21.35;;;5.18;;
61915;SDS011;47868;51.326;6.550;2023-04-25T06:48:55;17.10;;;5.40;;
61915;SDS011;47868;51.326;6.550;2023-04-25T06:51:21;14.63;;;4.45;;
61915;SDS011;47868;51.326;6.550;2023-04-25T06:53:49;19.13;;;5.53;;
61915;SDS011;47868;51.326;6.550;2023-04-25T06:56:15;17.05;;;4.43;;
61915;SDS011;47868;51.326;6.550;2023-04-25T06:58:41;17.13;;;5.07;;
61915;SDS011;47868;51.326;6.550;2023-04-25T07:01:07;14.93;;;4.57;;
61915;SDS011;47868;51.326;6.550;2023-04-25T07:03:33;20.23;;;5.43;;
61915;SDS011;47868;51.326;6.550;2023-04-25T07:06:00;20.17;;;5.20;;
61915;SDS011;47868;51.326;6.550;2023-04-25T07:08:26;16.65;;;4.32;;
61915;SDS011;47868;51.326;6.550;2023-04-25T07:10:52;12.65;;;4.13;;
61915;SDS011;47868;51.326;6.550;2023-04-25T07:13:18;20.85;;;4.57;;
61915;SDS011;47868;51.326;6.550;2023-04-25T07:15:44;12.50;;;4.55;;
61915;SDS011;47868;51.326;6.550;2023-04-25T07:18:12;21.90;;;5.03;;
61915;SDS011;47868;51.326;6.550;2023-04-25T07:20:38;11.77;;;4.32;;
61915;SDS011;47868;51.326;6.550;2023-04-25T07:23:04;13.45;;;4.43;;
61915;SDS011;47868;51.326;6.550;2023-04-25T07:25:31;11.98;;;4.70;;
61915;SDS011;47868;51.326;6.550;2023-04-25T07:27:57;15.15;;;5.75;;
61915;SDS011;47868;51.326;6.550;2023-04-25T07:30:23;16.00;;;4.90;;
61915;SDS011;47868;51.326;6.550;2023-04-25T07:32:49;13.70;;;4.75;;
61915;SDS011;47868;51.326;6.550;2023-04-25T07:35:16;15.15;;;4.40;;
61915;SDS011;47868;51.326;6.550;2023-04-25T07:37:42;18.52;;;5.28;;
61915;SDS011;47868;51.326;6.550;2023-04-25T07:40:08;10.80;;;4.57;;
61915;SDS011;47868;51.326;6.550;2023-04-25T07:42:35;18.10;;;5.05;;
61915;SDS011;47868;51.326;6.550;2023-04-25T07:45:01;17.95;;;5.45;;
61915;SDS011;47868;51.326;6.550;2023-04-25T07:47:28;16.80;;;4.55;;
61915;SDS011;47868;51.326;6.550;2023-04-25T07:49:54;10.48;;;3.72;;
61915;SDS011;47868;51.326;6.550;2023-04-25T07:52:21;10.40;;;4.13;;
61915;SDS011;47868;51.326;6.550;2023-04-25T07:54:47;10.27;;;4.40;;
61915;SDS011;47868;51.326;6.550;2023-04-25T07:57:13;9.30;;;3.75;;
61915;SDS011;47868;51.326;6.550;2023-04-25T07:59:40;12.27;;;3.88;;
61915;SDS011;47868;51.326;6.550;2023-04-25T08:02:06;13.10;;;4.22;;
61915;SDS011;47868;51.326;6.550;2023-04-25T08:04:32;9.73;;;3.10;;
61915;SDS011;47868;51.326;6.550;2023-04-25T08:06:58;10.27;;;3.22;;
61915;SDS011;47868;51.326;6.550;2023-04-25T08:09:24;13.38;;;3.78;;
61915;SDS011;47868;51.326;6.550;2023-04-25T08:11:51;10.57;;;4.15;;
61915;SDS011;47868;51.326;6.550;2023-04-25T08:14:17;10.57;;;3.28;;
61915;SDS011;47868;51.326;6.550;2023-04-25T08:16:43;13.93;;;3.60;;
61915;SDS011;47868;51.326;6.550;2023-04-25T08:19:09;11.18;;;3.55;;
61915;SDS011;47868;51.326;6.550;2023-04-25T08:21:36;12.45;;;3.90;;
61915;SDS011;47868;51.326;6.550;2023-04-25T08:24:02;9.85;;;3.42;;
61915;SDS011;47868;51.326;6.550;2023-04-25T08:26:28;11.38;;;3.40;;
61915;SDS011;47868;51.326;6.550;2023-04-25T08:28:54;13.75;;;3.97;;
61915;SDS011;47868;51.326;6.550;2023-04-25T08:31:20;8.25;;;3.00;;
61915;SDS011;47868;51.326;6.550;2023-04-25T08:33:46;8.25;;;3.30;;
61915;SDS011;47868;51.326;6.550;2023-04-25T08:36:14;11.30;;;3.13;;
61915;SDS011;47868;51.326;6.550;2023-04-25T08:38:40;9.30;;;2.83;;
61915;SDS011;47868;51.326;6.550;2023-04-25T08:41:06;9.75;;;2.78;;
61915;SDS011;47868;51.326;6.550;2023-04-25T08:43:32;10.90;;;2.88;;
61915;SDS011;47868;51.326;6.550;2023-04-25T08:46:00;8.10;;;2.60;;
61915;SDS011;47868;51.326;6.550;2023-04-25T08:48:27;8.75;;;2.75;;
61915;SDS011;47868;51.326;6.550;2023-04-25T08:50:56;6.05;;;2.83;;
61915;SDS011;47868;51.326;6.550;2023-04-25T08:53:27;9.52;;;2.20;;
61915;SDS011;47868;51.326;6.550;2023-04-25T08:55:53;7.20;;;2.42;;
61915;SDS011;47868;51.326;6.550;2023-04-25T08:58:20;9.27;;;2.80;;
61915;SDS011;47868;51.326;6.550;2023-04-25T09:00:47;8.65;;;3.00;;
61915;SDS011;47868;51.326;6.550;2023-04-25T09:03:13;10.40;;;3.00;;
61915;SDS011;47868;51.326;6.550;2023-04-25T09:05:40;11.55;;;2.80;;
61915;SDS011;47868;51.326;6.550;2023-04-25T09:08:06;9.27;;;3.13;;
61915;SDS011;47868;51.326;6.550;2023-04-25T09:10:33;9.93;;;2.70;;
61915;SDS011;47868;51.326;6.550;2023-04-25T09:13:11;8.40;;;2.95;;
61915;SDS011;47868;51.326;6.550;2023-04-25T09:15:47;6.55;;;3.22;;
61915;SDS011;47868;51.326;6.550;2023-04-25T09:18:21;8.48;;;2.60;;
61915;SDS011;47868;51.326;6.550;2023-04-25T09:20:47;6.88;;;2.55;;
61915;SDS011;47868;51.326;6.550;2023-04-25T09:23:14;7.82;;;2.60;;
61915;SDS011;47868;51.326;6.550;2023-04-25T09:25:40;10.23;;;4.30;;
61915;SDS011;47868;51.326;6.550;2023-04-25T09:28:08;11.05;;;2.85;;
61915;SDS011;47868;51.326;6.550;2023-04-25T09:30:36;9.68;;;2.90;;
61915;SDS011;47868;51.326;6.550;2023-04-25T09:33:05;10.23;;;3.33;;
61915;SDS011;47868;51.326;6.550;2023-04-25T09:36:06;7.88;;;2.90;;
61915;SDS011;47868;51.326;6.550;2023-04-25T09:38:24;7.82;;;3.22;;
61915;SDS011;47868;51.326;6.550;2023-04-25T09:40:51;11.73;;;2.58;;
61915;SDS011;47868;51.326;6.550;2023-04-25T09:43:20;7.15;;;2.72;;
61915;SDS011;47868;51.326;6.550;2023-04-25T09:45:46;10.82;;;3.30;;
61915;SDS011;47868;51.326;6.550;2023-04-25T09:48:19;8.75;;;3.15;;
61915;SDS011;47868;51.326;6.550;2023-04-25T09:51:03;13.25;;;3.47;;
61915;SDS011;47868;51.326;6.550;2023-04-25T09:53:30;12.40;;;3.38;;
61915;SDS011;47868;51.326;6.550;2023-04-25T09:55:57;10.48;;;3.30;;
61915;SDS011;47868;51.326;6.550;2023-04-25T09:58:25;16.70;;;5.25;;
61915;SDS011;47868;51.326;6.550;2023-04-25T10:00:51;11.32;;;3.17;;
61915;SDS011;47868;51.326;6.550;2023-04-25T10:03:17;8.50;;;2.50;;
61915;SDS011;47868;51.326;6.550;2023-04-25T10:05:46;8.57;;;3.63;;
61915;SDS011;47868;51.326;6.550;2023-04-25T10:08:13;9.38;;;2.72;;
61915;SDS011;47868;51.326;6.550;2023-04-25T10:10:39;6.78;;;2.80;;
61915;SDS011;47868;51.326;6.550;2023-04-25T10:13:06;8.00;;;2.72;;
61915;SDS011;47868;51.326;6.550;2023-04-25T10:15:34;4.20;;;2.45;;
61915;SDS011;47868;51.326;6.550;2023-04-25T10:18:03;10.98;;;3.28;;
61915;SDS011;47868;51.326;6.550;2023-04-25T10:20:31;11.88;;;3.00;;
61915;SDS011;47868;51.326;6.550;2023-04-25T10:22:58;9.35;;;3.40;;
61915;SDS011;47868;51.326;6.550;2023-04-25T10:25:29;6.57;;;2.70;;
61915;SDS011;47868;51.326;6.550;2023-04-25T10:27:56;9.75;;;2.78;;
61915;SDS011;47868;51.326;6.550;2023-04-25T10:30:22;12.20;;;3.05;;
61915;SDS011;47868;51.326;6.550;2023-04-25T10:32:48;7.28;;;2.40;;
61915;SDS011;47868;51.326;6.550;2023-04-25T10:40:29;9.32;;;2.90;;
61915;SDS011;47868;51.326;6.550;2023-04-25T10:42:56;10.02;;;3.00;;
61915;SDS011;47868;51.326;6.550;2023-04-25T10:45:51;6.47;;;2.50;;
61915;SDS011;47868;51.326;6.550;2023-04-25T10:48:27;7.10;;;2.70;;
61915;SDS011;47868;51.326;6.550;2023-04-25T10:51:09;13.60;;;2.88;;
61915;SDS011;47868;51.326;6.550;2023-04-25T10:53:36;7.03;;;2.50;;
61915;SDS011;47868;51.326;6.550;2023-04-25T10:56:19;7.45;;;2.85;;
61915;SDS011;47868;51.326;6.550;2023-04-25T10:58:46;10.15;;;2.55;;
61915;SDS011;47868;51.326;6.550;2023-04-25T11:01:21;6.63;;;2.22;;
61915;SDS011;47868;51.326;6.550;2023-04-25T11:03:56;7.88;;;2.40;;
61915;SDS011;47868;51.326;6.550;2023-04-25T11:06:23;8.30;;;2.70;;
61915;SDS011;47868;51.326;6.550;2023-04-25T11:08:53;7.50;;;2.38;;
61915;SDS011;47868;51.326;6.550;2023-04-25T11:11:19;5.10;;;2.22;;
61915;SDS011;47868;51.326;6.550;2023-04-25T11:13:47;6.97;;;2.30;;
61915;SDS011;47868;51.326;6.550;2023-04-25T11:16:14;7.45;;;2.28;;
61915;SDS011;47868;51.326;6.550;2023-04-25T11:18:41;7.65;;;2.47;;
61915;SDS011;47868;51.326;6.550;2023-04-25T11:21:07;8.20;;;2.70;;
61915;SDS011;47868;51.326;6.550;2023-04-25T11:23:33;5.75;;;2.50;;
61915;SDS011;47868;51.326;6.550;2023-04-25T11:26:00;7.93;;;2.97;;
61915;SDS011;47868;51.326;6.550;2023-04-25T11:28:26;7.70;;;2.95;;
61915;SDS011;47868;51.326;6.550;2023-04-25T11:30:52;4.93;;;2.78;;
61915;SDS011;47868;51.326;6.550;2023-04-25T11:33:22;8.48;;;2.97;;
61915;SDS011;47868;51.326;6.550;2023-04-25T11:35:48;7.00;;;3.13;;
61915;SDS011;47868;51.326;6.550;2023-04-25T11:38:15;7.13;;;2.80;;
61915;SDS011;47868;51.326;6.550;2023-04-25T11:40:41;6.78;;;2.40;;
61915;SDS011;47868;51.326;6.550;2023-04-25T11:43:07;5.22;;;2.40;;
61915;SDS011;47868;51.326;6.550;2023-04-25T11:45:36;7.20;;;2.70;;
61915;SDS011;47868;51.326;6.550;2023-04-25T11:48:02;3.22;;;2.20;;
61915;SDS011;47868;51.326;6.550;2023-04-25T11:50:28;7.60;;;2.83;;
61915;SDS011;47868;51.326;6.550;2023-04-25T11:52:55;7.00;;;2.20;;
61915;SDS011;47868;51.326;6.550;2023-04-25T11:55:22;6.78;;;2.70;;
61915;SDS011;47868;51.326;6.550;2023-04-25T11:57:48;7.65;;;2.42;;
61915;SDS011;47868;51.326;6.550;2023-04-25T12:00:16;6.00;;;2.47;;
61915;SDS011;47868;51.326;6.550;2023-04-25T12:02:43;4.72;;;2.22;;
61915;SDS011;47868;51.326;6.550;2023-04-25T12:05:10;6.15;;;2.25;;
61915;SDS011;47868;51.326;6.550;2023-04-25T12:07:36;7.18;;;2.25;;
61915;SDS011;47868;51.326;6.550;2023-04-25T12:10:10;5.78;;;2.67;;
61915;SDS011;47868;51.326;6.550;2023-04-25T12:12:36;4.57;;;2.33;;
61915;SDS011;47868;51.326;6.550;2023-04-25T12:15:09;5.60;;;2.03;;
61915;SDS011;47868;51.326;6.550;2023-04-25T12:17:36;5.53;;;2.45;;
61915;SDS011;47868;51.326;6.550;2023-04-25T12:20:09;5.43;;;2.08;;
61915;SDS011;47868;51.326;6.550;2023-04-25T12:22:35;5.05;;;2.55;;
61915;SDS011;47868;51.326;6.550;2023-04-25T12:25:02;8.88;;;2.08;;
61915;SDS011;47868;51.326;6.550;2023-04-25T12:27:30;4.30;;;2.03;;
61915;SDS011;47868;51.326;6.550;2023-04-25T12:29:56;4.80;;;2.47;;
61915;SDS011;47868;51.326;6.550;2023-04-25T12:32:23;8.93;;;2.15;;
61915;SDS011;47868;51.326;6.550;2023-04-25T12:34:51;5.30;;;2.05;;
61915;SDS011;47868;51.326;6.550;2023-04-25T12:37:17;5.22;;;2.13;;
61915;SDS011;47868;51.326;6.550;2023-04-25T12:39:43;4.28;;;2.33;;
61915;SDS011;47868;51.326;6.550;2023-04-25T12:42:09;10.52;;;2.97;;
61915;SDS011;47868;51.326;6.550;2023-04-25T12:44:37;12.82;;;2.88;;
61915;SDS011;47868;51.326;6.550;2023-04-25T12:47:03;7.78;;;2.78;;
61915;SDS011;47868;51.326;6.550;2023-04-25T12:49:30;6.35;;;3.00;;
61915;SDS011;47868;51.326;6.550;2023-04-25T12:51:56;5.63;;;2.70;;
61915;SDS011;47868;51.326;6.550;2023-04-25T12:54:23;8.35;;;3.55;;
61915;SDS011;47868;51.326;6.550;2023-04-25T12:56:49;7.78;;;2.63;;
61915;SDS011;47868;51.326;6.550;2023-04-25T12:59:16;5.22;;;2.22;;
61915;SDS011;47868;51.326;6.550;2023-04-25T13:01:42;4.28;;;2.05;;
61915;SDS011;47868;51.326;6.550;2023-04-25T13:04:10;6.68;;;2.22;;
61915;SDS011;47868;51.326;6.550;2023-04-25T13:06:36;7.22;;;2.15;;
61915;SDS011;47868;51.326;6.550;2023-04-25T13:09:02;4.85;;;2.20;;
61915;SDS011;47868;51.326;6.550;2023-04-25T13:11:29;7.03;;;2.20;;
61915;SDS011;47868;51.326;6.550;2023-04-25T13:13:55;3.92;;;2.03;;
61915;SDS011;47868;51.326;6.550;2023-04-25T13:16:21;3.35;;;1.70;;
61915;SDS011;47868;51.326;6.550;2023-04-25T13:18:48;4.80;;;1.85;;
61915;SDS011;47868;51.326;6.550;2023-04-25T13:21:14;2.28;;;1.80;;
61915;SDS011;47868;51.326;6.550;2023-04-25T13:23:40;7.65;;;2.33;;
61915;SDS011;47868;51.326;6.550;2023-04-25T13:26:08;4.47;;;2.15;;
61915;SDS011;47868;51.326;6.550;2023-04-25T13:28:34;5.65;;;2.42;;
61915;SDS011;47868;51.326;6.550;2023-04-25T13:31:00;6.13;;;2.38;;
61915;SDS011;47868;51.326;6.550;2023-04-25T13:33:26;6.43;;;2.55;;
61915;SDS011;47868;51.326;6.550;2023-04-25T13:35:52;4.53;;;2.30;;
61915;SDS011;47868;51.326;6.550;2023-04-25T13:38:19;6.30;;;2.55;;
61915;SDS011;47868;51.326;6.550;2023-04-25T13:40:45;6.93;;;2.28;;
61915;SDS011;47868;51.326;6.550;2023-04-25T13:43:11;5.68;;;1.90;;
61915;SDS011;47868;51.326;6.550;2023-04-25T13:45:37;8.20;;;2.60;;
61915;SDS011;47868;51.326;6.550;2023-04-25T13:48:03;6.13;;;2.30;;
61915;SDS011;47868;51.326;6.550;2023-04-25T13:50:29;5.97;;;2.58;;
61915;SDS011;47868;51.326;6.550;2023-04-25T13:52:56;3.63;;;2.63;;
61915;SDS011;47868;51.326;6.550;2023-04-25T13:55:22;6.75;;;2.75;;
61915;SDS011;47868;51.326;6.550;2023-04-25T13:57:48;8.07;;;2.30;;
61915;SDS011;47868;51.326;6.550;2023-04-25T14:00:15;3.88;;;2.25;;
61915;SDS011;47868;51.326;6.550;2023-04-25T14:02:41;6.53;;;2.35;;
61915;SDS011;47868;51.326;6.550;2023-04-25T14:05:07;5.60;;;1.88;;
61915;SDS011;47868;51.326;6.550;2023-04-25T14:07:34;5.05;;;2.00;;
61915;SDS011;47868;51.326;6.550;2023-04-25T14:10:00;7.18;;;2.00;;
61915;SDS011;47868;51.326;6.550;2023-04-25T14:12:27;5.53;;;2.45;;
61915;SDS011;47868;51.326;6.550;2023-04-25T14:14:53;7.70;;;2.17;;
61915;SDS011;47868;51.326;6.550;2023-04-25T14:17:19;4.63;;;1.77;;
61915;SDS011;47868;51.326;6.550;2023-04-25T14:19:45;4.13;;;1.88;;
61915;SDS011;47868;51.326;6.550;2023-04-25T14:22:13;6.38;;;2.17;;
61915;SDS011;47868;51.326;6.550;2023-04-25T14:24:39;4.07;;;2.30;;
61915;SDS011;47868;51.326;6.550;2023-04-25T14:27:05;4.35;;;1.95;;
61915;SDS011;47868;51.326;6.550;2023-04-25T14:29:31;6.32;;;1.85;;
61915;SDS011;47868;51.326;6.550;2023-04-25T14:31:57;3.28;;;1.90;;
61915;SDS011;47868;51.326;6.550;2023-04-25T14:34:24;8.65;;;1.83;;
61915;SDS011;47868;51.326;6.550;2023-04-25T14:36:50;4.00;;;2.00;;
61915;SDS011;47868;51.326;6.550;2023-04-25T14:39:17;5.72;;;1.70;;
61915;SDS011;47868;51.326;6.550;2023-04-25T14:41:43;4.03;;;1.83;;